sensor_id;sensor_type;location;lat;lon;timestamp;P1;durP1;ratioP1;P2;durP2;ratioP2
19171;SDS011;9718;52.200;21.052;2023-02-18T00:01:38;7.77;;;5.80;;
19171;SDS011;9718;52.200;21.052;2023-02-18T00:04:06;8.90;;;5.70;;
19171;SDS011;9718;52.200;21.052;2023-02-18T00:06:34;6.80;;;5.70;;
19171;SDS011;9718;52.200;21.052;2023-02-18T00:09:04;6.90;;;6.30;;
19171;SDS011;9718;52.200;21.052;2023-02-18T00:11:33;6.33;;;5.80;;
19171;SDS011;9718;52.200;21.052;2023-02-18T00:14:03;5.77;;;4.10;;
19171;SDS011;9718;52.200;21.052;2023-02-18T00:16:33;9.33;;;3.90;;
19171;SDS011;9718;52.200;21.052;2023-02-18T00:19:01;6.13;;;3.60;;
19171;SDS011;9718;52.200;21.052;2023-02-18T00:21:32;4.77;;;4.20;;
19171;SDS011;9718;52.200;21.052;2023-02-18T00:24:00;6.47;;;3.90;;
19171;SDS011;9718;52.200;21.052;2023-02-18T00:26:29;8.77;;;6.07;;
19171;SDS011;9718;52.200;21.052;2023-02-18T00:28:59;7.50;;;6.63;;
19171;SDS011;9718;52.200;21.052;2023-02-18T00:31:28;7.57;;;6.10;;
19171;SDS011;9718;52.200;21.052;2023-02-18T00:33:58;12.80;;;6.00;;
19171;SDS011;9718;52.200;21.052;2023-02-18T00:36:27;6.77;;;5.90;;
19171;SDS011;9718;52.200;21.052;2023-02-18T00:38:56;8.20;;;6.07;;
19171;SDS011;9718;52.200;21.052;2023-02-18T00:41:25;6.90;;;6.20;;
19171;SDS011;9718;52.200;21.052;2023-02-18T00:43:54;10.40;;;6.07;;
19171;SDS011;9718;52.200;21.052;2023-02-18T00:46:22;6.70;;;5.87;;
19171;SDS011;9718;52.200;21.052;2023-02-18T00:48:50;10.97;;;5.63;;
19171;SDS011;9718;52.200;21.052;2023-02-18T00:51:18;8.23;;;3.80;;
19171;SDS011;9718;52.200;21.052;2023-02-18T00:53:47;6.07;;;3.67;;
19171;SDS011;9718;52.200;21.052;2023-02-18T00:56:15;9.13;;;4.20;;
19171;SDS011;9718;52.200;21.052;2023-02-18T00:58:43;12.10;;;4.30;;
19171;SDS011;9718;52.200;21.052;2023-02-18T01:01:10;8.03;;;5.20;;
19171;SDS011;9718;52.200;21.052;2023-02-18T01:03:39;10.43;;;5.60;;
19171;SDS011;9718;52.200;21.052;2023-02-18T01:06:08;9.10;;;5.27;;
19171;SDS011;9718;52.200;21.052;2023-02-18T01:08:37;10.47;;;5.87;;
19171;SDS011;9718;52.200;21.052;2023-02-18T01:11:06;10.13;;;6.13;;
19171;SDS011;9718;52.200;21.052;2023-02-18T01:13:36;11.20;;;4.93;;
19171;SDS011;9718;52.200;21.052;2023-02-18T01:16:04;7.27;;;5.20;;
19171;SDS011;9718;52.200;21.052;2023-02-18T01:18:33;10.53;;;6.80;;
19171;SDS011;9718;52.200;21.052;2023-02-18T01:21:02;8.77;;;5.17;;
19171;SDS011;9718;52.200;21.052;2023-02-18T01:23:35;10.40;;;4.47;;
19171;SDS011;9718;52.200;21.052;2023-02-18T01:26:04;8.07;;;5.07;;
19171;SDS011;9718;52.200;21.052;2023-02-18T01:28:33;7.90;;;4.67;;
19171;SDS011;9718;52.200;21.052;2023-02-18T01:31:06;11.10;;;6.70;;
19171;SDS011;9718;52.200;21.052;2023-02-18T01:33:35;6.87;;;6.33;;
19171;SDS011;9718;52.200;21.052;2023-02-18T01:36:02;9.80;;;6.50;;
19171;SDS011;9718;52.200;21.052;2023-02-18T01:38:31;11.53;;;5.33;;
19171;SDS011;9718;52.200;21.052;2023-02-18T01:40:58;11.37;;;6.80;;
19171;SDS011;9718;52.200;21.052;2023-02-18T01:43:26;11.70;;;7.17;;
19171;SDS011;9718;52.200;21.052;2023-02-18T01:51:37;8.77;;;7.50;;
19171;SDS011;9718;52.200;21.052;2023-02-18T01:54:18;9.47;;;8.67;;
19171;SDS011;9718;52.200;21.052;2023-02-18T01:57:02;9.63;;;8.33;;
19171;SDS011;9718;52.200;21.052;2023-02-18T01:59:44;8.87;;;5.90;;
19171;SDS011;9718;52.200;21.052;2023-02-18T02:02:16;13.30;;;6.13;;
19171;SDS011;9718;52.200;21.052;2023-02-18T02:04:47;8.87;;;5.67;;
19171;SDS011;9718;52.200;21.052;2023-02-18T02:07:16;5.20;;;4.70;;
19171;SDS011;9718;52.200;21.052;2023-02-18T02:09:46;9.90;;;5.60;;
19171;SDS011;9718;52.200;21.052;2023-02-18T02:37:56;14.00;;;4.20;;
19171;SDS011;9718;52.200;21.052;2023-02-18T02:40:35;10.47;;;3.63;;
19171;SDS011;9718;52.200;21.052;2023-02-18T02:56:46;11.73;;;5.10;;
19171;SDS011;9718;52.200;21.052;2023-02-18T02:59:18;10.23;;;4.70;;
19171;SDS011;9718;52.200;21.052;2023-02-18T03:16:13;11.23;;;4.43;;
19171;SDS011;9718;52.200;21.052;2023-02-18T03:21:41;11.80;;;4.83;;
19171;SDS011;9718;52.200;21.052;2023-02-18T03:27:03;11.90;;;3.87;;
19171;SDS011;9718;52.200;21.052;2023-02-18T03:29:41;7.73;;;5.03;;
19171;SDS011;9718;52.200;21.052;2023-02-18T03:32:11;7.93;;;4.90;;
19171;SDS011;9718;52.200;21.052;2023-02-18T03:34:42;10.50;;;6.83;;
19171;SDS011;9718;52.200;21.052;2023-02-18T03:37:13;9.40;;;7.70;;
19171;SDS011;9718;52.200;21.052;2023-02-18T03:39:43;9.37;;;6.23;;
19171;SDS011;9718;52.200;21.052;2023-02-18T03:42:15;7.10;;;5.00;;
19171;SDS011;9718;52.200;21.052;2023-02-18T03:44:44;10.97;;;5.60;;
19171;SDS011;9718;52.200;21.052;2023-02-18T03:47:11;11.50;;;5.80;;
19171;SDS011;9718;52.200;21.052;2023-02-18T03:49:39;10.60;;;5.87;;
19171;SDS011;9718;52.200;21.052;2023-02-18T03:52:09;11.27;;;5.43;;
19171;SDS011;9718;52.200;21.052;2023-02-18T03:54:37;11.93;;;4.57;;
19171;SDS011;9718;52.200;21.052;2023-02-18T03:57:05;10.23;;;4.27;;
19171;SDS011;9718;52.200;21.052;2023-02-18T03:59:33;7.33;;;3.27;;
19171;SDS011;9718;52.200;21.052;2023-02-18T04:02:01;14.50;;;4.53;;
19171;SDS011;9718;52.200;21.052;2023-02-18T04:04:29;9.57;;;3.10;;
19171;SDS011;9718;52.200;21.052;2023-02-18T04:06:56;13.43;;;3.50;;
19171;SDS011;9718;52.200;21.052;2023-02-18T04:09:24;8.53;;;2.83;;
19171;SDS011;9718;52.200;21.052;2023-02-18T04:11:52;8.47;;;3.87;;
19171;SDS011;9718;52.200;21.052;2023-02-18T04:14:19;9.13;;;3.13;;
19171;SDS011;9718;52.200;21.052;2023-02-18T04:16:50;5.43;;;2.57;;
19171;SDS011;9718;52.200;21.052;2023-02-18T04:19:17;10.33;;;3.00;;
19171;SDS011;9718;52.200;21.052;2023-02-18T04:21:46;7.23;;;3.20;;
19171;SDS011;9718;52.200;21.052;2023-02-18T04:24:14;10.40;;;4.83;;
19171;SDS011;9718;52.200;21.052;2023-02-18T04:26:42;12.40;;;6.27;;
19171;SDS011;9718;52.200;21.052;2023-02-18T04:29:10;8.47;;;5.50;;
19171;SDS011;9718;52.200;21.052;2023-02-18T04:31:37;11.17;;;5.30;;
19171;SDS011;9718;52.200;21.052;2023-02-18T04:34:05;12.97;;;5.57;;
19171;SDS011;9718;52.200;21.052;2023-02-18T04:36:34;9.97;;;5.37;;
19171;SDS011;9718;52.200;21.052;2023-02-18T04:39:01;13.47;;;3.60;;
19171;SDS011;9718;52.200;21.052;2023-02-18T04:41:29;15.23;;;4.20;;
19171;SDS011;9718;52.200;21.052;2023-02-18T04:43:58;6.83;;;3.60;;
19171;SDS011;9718;52.200;21.052;2023-02-18T04:46:26;9.47;;;3.57;;
19171;SDS011;9718;52.200;21.052;2023-02-18T04:48:54;8.77;;;3.60;;
19171;SDS011;9718;52.200;21.052;2023-02-18T04:51:21;17.80;;;3.77;;
19171;SDS011;9718;52.200;21.052;2023-02-18T04:53:50;15.50;;;3.97;;
19171;SDS011;9718;52.200;21.052;2023-02-18T04:56:19;9.07;;;3.83;;
19171;SDS011;9718;52.200;21.052;2023-02-18T04:58:46;9.93;;;4.93;;
19171;SDS011;9718;52.200;21.052;2023-02-18T05:01:13;6.37;;;4.40;;
19171;SDS011;9718;52.200;21.052;2023-02-18T05:03:41;11.07;;;4.47;;
19171;SDS011;9718;52.200;21.052;2023-02-18T05:06:10;8.73;;;5.50;;
19171;SDS011;9718;52.200;21.052;2023-02-18T05:08:38;6.50;;;4.20;;
19171;SDS011;9718;52.200;21.052;2023-02-18T05:11:06;10.57;;;4.60;;
19171;SDS011;9718;52.200;21.052;2023-02-18T05:13:34;13.53;;;4.90;;
19171;SDS011;9718;52.200;21.052;2023-02-18T05:16:03;10.10;;;4.87;;
19171;SDS011;9718;52.200;21.052;2023-02-18T05:18:32;11.20;;;4.57;;
19171;SDS011;9718;52.200;21.052;2023-02-18T05:21:00;14.13;;;6.13;;
19171;SDS011;9718;52.200;21.052;2023-02-18T05:23:28;6.53;;;4.90;;
19171;SDS011;9718;52.200;21.052;2023-02-18T05:25:55;5.67;;;3.77;;
19171;SDS011;9718;52.200;21.052;2023-02-18T05:28:24;16.50;;;5.30;;
19171;SDS011;9718;52.200;21.052;2023-02-18T05:30:53;6.37;;;5.33;;
19171;SDS011;9718;52.200;21.052;2023-02-18T05:33:21;8.50;;;5.57;;
19171;SDS011;9718;52.200;21.052;2023-02-18T05:35:49;11.97;;;4.33;;
19171;SDS011;9718;52.200;21.052;2023-02-18T05:38:19;10.23;;;3.83;;
19171;SDS011;9718;52.200;21.052;2023-02-18T05:40:50;11.70;;;4.13;;
19171;SDS011;9718;52.200;21.052;2023-02-18T05:43:18;8.93;;;4.50;;
19171;SDS011;9718;52.200;21.052;2023-02-18T05:45:47;8.17;;;4.50;;
19171;SDS011;9718;52.200;21.052;2023-02-18T05:48:15;8.33;;;3.90;;
19171;SDS011;9718;52.200;21.052;2023-02-18T05:50:45;6.13;;;4.00;;
19171;SDS011;9718;52.200;21.052;2023-02-18T05:53:13;10.70;;;3.70;;
19171;SDS011;9718;52.200;21.052;2023-02-18T05:55:43;10.30;;;4.80;;
19171;SDS011;9718;52.200;21.052;2023-02-18T05:58:11;10.73;;;4.53;;
19171;SDS011;9718;52.200;21.052;2023-02-18T06:00:43;11.33;;;4.00;;
19171;SDS011;9718;52.200;21.052;2023-02-18T06:03:10;7.60;;;3.73;;
19171;SDS011;9718;52.200;21.052;2023-02-18T06:05:39;12.70;;;4.47;;
19171;SDS011;9718;52.200;21.052;2023-02-18T06:08:06;9.30;;;4.37;;
19171;SDS011;9718;52.200;21.052;2023-02-18T06:10:34;10.10;;;4.67;;
19171;SDS011;9718;52.200;21.052;2023-02-18T06:13:01;9.10;;;5.37;;
19171;SDS011;9718;52.200;21.052;2023-02-18T06:15:30;9.97;;;4.80;;
19171;SDS011;9718;52.200;21.052;2023-02-18T06:17:59;14.40;;;5.50;;
19171;SDS011;9718;52.200;21.052;2023-02-18T06:20:26;11.43;;;5.03;;
19171;SDS011;9718;52.200;21.052;2023-02-18T06:22:54;6.07;;;4.20;;
19171;SDS011;9718;52.200;21.052;2023-02-18T06:25:24;14.27;;;5.23;;
19171;SDS011;9718;52.200;21.052;2023-02-18T06:27:51;11.90;;;5.70;;
19171;SDS011;9718;52.200;21.052;2023-02-18T06:30:19;11.40;;;5.63;;
19171;SDS011;9718;52.200;21.052;2023-02-18T06:32:51;9.23;;;4.93;;
19171;SDS011;9718;52.200;21.052;2023-02-18T06:35:19;12.43;;;4.90;;
19171;SDS011;9718;52.200;21.052;2023-02-18T06:37:46;9.13;;;5.23;;
19171;SDS011;9718;52.200;21.052;2023-02-18T06:40:14;9.27;;;4.27;;
19171;SDS011;9718;52.200;21.052;2023-02-18T06:42:44;10.03;;;4.43;;
19171;SDS011;9718;52.200;21.052;2023-02-18T06:45:12;13.60;;;4.70;;
19171;SDS011;9718;52.200;21.052;2023-02-18T06:47:40;8.67;;;4.10;;
19171;SDS011;9718;52.200;21.052;2023-02-18T06:50:07;13.03;;;5.10;;
19171;SDS011;9718;52.200;21.052;2023-02-18T06:52:35;13.80;;;5.87;;
19171;SDS011;9718;52.200;21.052;2023-02-18T06:55:05;12.63;;;5.00;;
19171;SDS011;9718;52.200;21.052;2023-02-18T06:57:33;9.30;;;5.47;;
19171;SDS011;9718;52.200;21.052;2023-02-18T07:00:03;7.80;;;6.93;;
19171;SDS011;9718;52.200;21.052;2023-02-18T07:02:32;10.47;;;5.53;;
19171;SDS011;9718;52.200;21.052;2023-02-18T07:05:02;11.23;;;5.73;;
19171;SDS011;9718;52.200;21.052;2023-02-18T07:07:30;18.47;;;6.03;;
19171;SDS011;9718;52.200;21.052;2023-02-18T07:09:57;9.50;;;5.40;;
19171;SDS011;9718;52.200;21.052;2023-02-18T07:12:25;8.13;;;7.30;;
19171;SDS011;9718;52.200;21.052;2023-02-18T07:14:57;12.27;;;6.73;;
19171;SDS011;9718;52.200;21.052;2023-02-18T07:17:25;12.60;;;6.30;;
19171;SDS011;9718;52.200;21.052;2023-02-18T07:19:53;13.53;;;5.90;;
19171;SDS011;9718;52.200;21.052;2023-02-18T07:22:24;12.40;;;6.83;;
19171;SDS011;9718;52.200;21.052;2023-02-18T07:24:52;9.13;;;5.87;;
19171;SDS011;9718;52.200;21.052;2023-02-18T07:27:20;17.00;;;6.67;;
19171;SDS011;9718;52.200;21.052;2023-02-18T07:29:48;9.80;;;7.17;;
19171;SDS011;9718;52.200;21.052;2023-02-18T07:32:17;13.33;;;6.20;;
19171;SDS011;9718;52.200;21.052;2023-02-18T07:34:50;11.63;;;5.90;;
19171;SDS011;9718;52.200;21.052;2023-02-18T07:37:18;8.90;;;4.73;;
19171;SDS011;9718;52.200;21.052;2023-02-18T07:39:47;13.63;;;4.60;;
19171;SDS011;9718;52.200;21.052;2023-02-18T07:42:14;7.67;;;3.93;;
19171;SDS011;9718;52.200;21.052;2023-02-18T07:44:42;14.97;;;6.33;;
19171;SDS011;9718;52.200;21.052;2023-02-18T07:47:09;10.93;;;3.77;;
19171;SDS011;9718;52.200;21.052;2023-02-18T07:49:41;7.03;;;4.47;;
19171;SDS011;9718;52.200;21.052;2023-02-18T07:52:09;14.87;;;4.33;;
19171;SDS011;9718;52.200;21.052;2023-02-18T07:54:36;8.17;;;4.60;;
19171;SDS011;9718;52.200;21.052;2023-02-18T07:57:04;7.93;;;4.80;;
19171;SDS011;9718;52.200;21.052;2023-02-18T07:59:32;10.97;;;5.10;;
19171;SDS011;9718;52.200;21.052;2023-02-18T08:02:01;10.07;;;5.00;;
19171;SDS011;9718;52.200;21.052;2023-02-18T08:04:29;9.80;;;4.57;;
19171;SDS011;9718;52.200;21.052;2023-02-18T08:06:57;8.50;;;4.67;;
19171;SDS011;9718;52.200;21.052;2023-02-18T08:09:25;9.20;;;5.50;;
19171;SDS011;9718;52.200;21.052;2023-02-18T08:11:53;10.33;;;4.80;;
19171;SDS011;9718;52.200;21.052;2023-02-18T08:14:21;11.60;;;5.00;;
19171;SDS011;9718;52.200;21.052;2023-02-18T08:16:49;12.60;;;5.30;;
19171;SDS011;9718;52.200;21.052;2023-02-18T08:19:17;14.57;;;5.40;;
19171;SDS011;9718;52.200;21.052;2023-02-18T08:21:48;11.63;;;5.07;;
19171;SDS011;9718;52.200;21.052;2023-02-18T08:24:18;8.80;;;4.47;;
19171;SDS011;9718;52.200;21.052;2023-02-18T08:26:45;12.87;;;4.63;;
19171;SDS011;9718;52.200;21.052;2023-02-18T08:29:26;11.33;;;5.03;;
19171;SDS011;9718;52.200;21.052;2023-02-18T08:31:55;10.50;;;6.10;;
19171;SDS011;9718;52.200;21.052;2023-02-18T08:34:24;15.13;;;6.20;;
19171;SDS011;9718;52.200;21.052;2023-02-18T08:36:52;15.33;;;5.77;;
19171;SDS011;9718;52.200;21.052;2023-02-18T08:39:20;13.90;;;4.13;;
19171;SDS011;9718;52.200;21.052;2023-02-18T08:41:49;6.77;;;3.77;;
19171;SDS011;9718;52.200;21.052;2023-02-18T08:44:16;10.80;;;4.67;;
19171;SDS011;9718;52.200;21.052;2023-02-18T08:46:44;10.03;;;5.10;;
19171;SDS011;9718;52.200;21.052;2023-02-18T08:49:14;11.17;;;4.43;;
19171;SDS011;9718;52.200;21.052;2023-02-18T08:51:42;10.00;;;3.83;;
19171;SDS011;9718;52.200;21.052;2023-02-18T08:54:10;11.67;;;4.57;;
19171;SDS011;9718;52.200;21.052;2023-02-18T08:56:39;20.03;;;5.07;;
19171;SDS011;9718;52.200;21.052;2023-02-18T08:59:07;8.73;;;4.77;;
19171;SDS011;9718;52.200;21.052;2023-02-18T09:01:34;11.87;;;4.10;;
19171;SDS011;9718;52.200;21.052;2023-02-18T09:04:02;7.33;;;2.43;;
19171;SDS011;9718;52.200;21.052;2023-02-18T09:06:29;8.87;;;3.17;;
19171;SDS011;9718;52.200;21.052;2023-02-18T09:08:57;12.30;;;3.60;;
19171;SDS011;9718;52.200;21.052;2023-02-18T09:11:25;9.30;;;4.53;;
19171;SDS011;9718;52.200;21.052;2023-02-18T09:13:52;18.57;;;5.67;;
19171;SDS011;9718;52.200;21.052;2023-02-18T09:16:20;11.93;;;4.73;;
19171;SDS011;9718;52.200;21.052;2023-02-18T09:18:47;14.27;;;4.70;;
19171;SDS011;9718;52.200;21.052;2023-02-18T09:21:16;10.50;;;4.33;;
19171;SDS011;9718;52.200;21.052;2023-02-18T09:23:46;14.67;;;4.93;;
19171;SDS011;9718;52.200;21.052;2023-02-18T09:26:15;14.13;;;5.17;;
19171;SDS011;9718;52.200;21.052;2023-02-18T09:28:44;12.20;;;5.10;;
19171;SDS011;9718;52.200;21.052;2023-02-18T09:31:13;10.93;;;4.63;;
19171;SDS011;9718;52.200;21.052;2023-02-18T09:33:44;8.17;;;4.63;;
19171;SDS011;9718;52.200;21.052;2023-02-18T09:36:14;17.20;;;4.93;;
19171;SDS011;9718;52.200;21.052;2023-02-18T09:38:43;9.77;;;5.20;;
19171;SDS011;9718;52.200;21.052;2023-02-18T09:46:51;12.93;;;4.37;;
19171;SDS011;9718;52.200;21.052;2023-02-18T09:49:40;9.17;;;4.20;;
19171;SDS011;9718;52.200;21.052;2023-02-18T09:52:19;8.17;;;4.27;;
19171;SDS011;9718;52.200;21.052;2023-02-18T09:54:50;12.23;;;4.20;;
19171;SDS011;9718;52.200;21.052;2023-02-18T09:57:52;10.90;;;4.40;;
19171;SDS011;9718;52.200;21.052;2023-02-18T10:05:51;9.17;;;4.27;;
19171;SDS011;9718;52.200;21.052;2023-02-18T10:08:41;10.33;;;4.63;;
19171;SDS011;9718;52.200;21.052;2023-02-18T10:11:16;11.83;;;4.10;;
19171;SDS011;9718;52.200;21.052;2023-02-18T10:13:48;10.90;;;3.97;;
19171;SDS011;9718;52.200;21.052;2023-02-18T10:16:18;10.47;;;3.17;;
19171;SDS011;9718;52.200;21.052;2023-02-18T10:18:48;11.37;;;3.57;;
19171;SDS011;9718;52.200;21.052;2023-02-18T10:21:26;12.37;;;3.57;;
19171;SDS011;9718;52.200;21.052;2023-02-18T10:27:01;9.97;;;4.27;;
19171;SDS011;9718;52.200;21.052;2023-02-18T10:29:32;11.70;;;4.50;;
19171;SDS011;9718;52.200;21.052;2023-02-18T10:32:12;7.83;;;3.77;;
19171;SDS011;9718;52.200;21.052;2023-02-18T10:34:46;10.57;;;3.23;;
19171;SDS011;9718;52.200;21.052;2023-02-18T10:37:31;10.40;;;3.70;;
19171;SDS011;9718;52.200;21.052;2023-02-18T10:52:13;8.43;;;3.63;;
19171;SDS011;9718;52.200;21.052;2023-02-18T10:54:49;14.03;;;4.80;;
19171;SDS011;9718;52.200;21.052;2023-02-18T10:57:24;13.10;;;5.40;;
19171;SDS011;9718;52.200;21.052;2023-02-18T10:59:53;13.83;;;6.07;;
19171;SDS011;9718;52.200;21.052;2023-02-18T11:02:39;13.43;;;6.30;;
19171;SDS011;9718;52.200;21.052;2023-02-18T11:05:26;12.50;;;5.57;;
19171;SDS011;9718;52.200;21.052;2023-02-18T11:07:56;12.67;;;6.40;;
19171;SDS011;9718;52.200;21.052;2023-02-18T11:10:25;12.17;;;5.70;;
19171;SDS011;9718;52.200;21.052;2023-02-18T11:13:04;12.57;;;5.77;;
19171;SDS011;9718;52.200;21.052;2023-02-18T11:15:36;12.80;;;6.17;;
19171;SDS011;9718;52.200;21.052;2023-02-18T11:18:12;13.73;;;6.43;;
19171;SDS011;9718;52.200;21.052;2023-02-18T11:20:40;10.43;;;4.80;;
19171;SDS011;9718;52.200;21.052;2023-02-18T11:23:22;14.23;;;4.70;;
19171;SDS011;9718;52.200;21.052;2023-02-18T11:25:55;11.97;;;5.60;;
19171;SDS011;9718;52.200;21.052;2023-02-18T11:28:47;15.73;;;6.47;;
19171;SDS011;9718;52.200;21.052;2023-02-18T11:31:24;14.23;;;6.57;;
19171;SDS011;9718;52.200;21.052;2023-02-18T11:33:58;14.03;;;5.27;;
19171;SDS011;9718;52.200;21.052;2023-02-18T11:36:32;10.37;;;5.13;;
19171;SDS011;9718;52.200;21.052;2023-02-18T11:39:05;13.70;;;4.03;;
19171;SDS011;9718;52.200;21.052;2023-02-18T11:44:28;11.87;;;4.43;;
19171;SDS011;9718;52.200;21.052;2023-02-18T11:47:18;14.47;;;4.90;;
19171;SDS011;9718;52.200;21.052;2023-02-18T11:52:41;14.30;;;5.17;;
19171;SDS011;9718;52.200;21.052;2023-02-18T12:00:46;9.47;;;5.23;;
19171;SDS011;9718;52.200;21.052;2023-02-18T12:05:55;13.20;;;5.00;;
19171;SDS011;9718;52.200;21.052;2023-02-18T12:08:27;13.47;;;4.80;;
19171;SDS011;9718;52.200;21.052;2023-02-18T12:11:00;9.77;;;4.40;;
19171;SDS011;9718;52.200;21.052;2023-02-18T12:13:56;9.23;;;4.50;;
19171;SDS011;9718;52.200;21.052;2023-02-18T12:16:34;12.23;;;4.37;;
19171;SDS011;9718;52.200;21.052;2023-02-18T12:22:14;13.53;;;4.57;;
19171;SDS011;9718;52.200;21.052;2023-02-18T12:30:41;13.20;;;4.33;;
19171;SDS011;9718;52.200;21.052;2023-02-18T12:33:44;10.93;;;4.13;;
19171;SDS011;9718;52.200;21.052;2023-02-18T12:36:36;16.93;;;4.90;;
19171;SDS011;9718;52.200;21.052;2023-02-18T12:44:57;9.20;;;4.33;;
19171;SDS011;9718;52.200;21.052;2023-02-18T12:54:29;7.17;;;3.80;;
19171;SDS011;9718;52.200;21.052;2023-02-18T12:57:32;7.77;;;4.07;;
19171;SDS011;9718;52.200;21.052;2023-02-18T13:12:36;11.40;;;5.27;;
19171;SDS011;9718;52.200;21.052;2023-02-18T13:15:23;9.10;;;4.97;;
19171;SDS011;9718;52.200;21.052;2023-02-18T13:17:59;8.13;;;4.17;;
19171;SDS011;9718;52.200;21.052;2023-02-18T13:20:34;13.83;;;5.10;;
19171;SDS011;9718;52.200;21.052;2023-02-18T13:23:09;8.87;;;4.63;;
19171;SDS011;9718;52.200;21.052;2023-02-18T13:25:48;10.27;;;4.83;;
19171;SDS011;9718;52.200;21.052;2023-02-18T13:28:30;13.03;;;5.07;;
19171;SDS011;9718;52.200;21.052;2023-02-18T13:39:54;6.90;;;4.63;;
19171;SDS011;9718;52.200;21.052;2023-02-18T13:42:32;12.43;;;4.70;;
19171;SDS011;9718;52.200;21.052;2023-02-18T13:45:22;10.33;;;6.00;;
19171;SDS011;9718;52.200;21.052;2023-02-18T13:47:55;10.70;;;4.97;;
19171;SDS011;9718;52.200;21.052;2023-02-18T13:55:33;14.83;;;5.30;;
19171;SDS011;9718;52.200;21.052;2023-02-18T13:58:23;13.07;;;4.90;;
19171;SDS011;9718;52.200;21.052;2023-02-18T14:01:03;12.33;;;5.10;;
19171;SDS011;9718;52.200;21.052;2023-02-18T14:06:17;12.43;;;4.70;;
19171;SDS011;9718;52.200;21.052;2023-02-18T14:08:45;9.50;;;5.30;;
19171;SDS011;9718;52.200;21.052;2023-02-18T14:13:55;10.27;;;4.37;;
19171;SDS011;9718;52.200;21.052;2023-02-18T14:22:46;8.17;;;6.10;;
19171;SDS011;9718;52.200;21.052;2023-02-18T14:27:51;11.53;;;6.10;;
19171;SDS011;9718;52.200;21.052;2023-02-18T14:32:51;15.57;;;6.20;;
19171;SDS011;9718;52.200;21.052;2023-02-18T14:43:32;9.87;;;6.83;;
19171;SDS011;9718;52.200;21.052;2023-02-18T14:49:35;11.80;;;6.10;;
19171;SDS011;9718;52.200;21.052;2023-02-18T14:52:10;12.37;;;6.10;;
19171;SDS011;9718;52.200;21.052;2023-02-18T14:55:03;12.50;;;6.03;;
19171;SDS011;9718;52.200;21.052;2023-02-18T14:57:35;10.20;;;5.00;;
19171;SDS011;9718;52.200;21.052;2023-02-18T15:00:18;13.03;;;6.23;;
19171;SDS011;9718;52.200;21.052;2023-02-18T15:02:49;9.43;;;5.60;;
19171;SDS011;9718;52.200;21.052;2023-02-18T15:05:24;11.17;;;6.20;;
19171;SDS011;9718;52.200;21.052;2023-02-18T15:07:59;12.33;;;6.10;;
19171;SDS011;9718;52.200;21.052;2023-02-18T15:10:41;11.73;;;5.90;;
19171;SDS011;9718;52.200;21.052;2023-02-18T15:13:16;11.37;;;5.60;;
19171;SDS011;9718;52.200;21.052;2023-02-18T15:15:47;12.23;;;5.60;;
19171;SDS011;9718;52.200;21.052;2023-02-18T15:18:32;9.07;;;8.33;;
19171;SDS011;9718;52.200;21.052;2023-02-18T15:21:07;4.63;;;3.00;;
19171;SDS011;9718;52.200;21.052;2023-02-18T15:23:45;3.13;;;2.83;;
19171;SDS011;9718;52.200;21.052;2023-02-18T15:26:14;5.87;;;5.27;;
19171;SDS011;9718;52.200;21.052;2023-02-18T15:28:59;5.20;;;4.80;;
19171;SDS011;9718;52.200;21.052;2023-02-18T15:31:30;9.23;;;5.20;;
19171;SDS011;9718;52.200;21.052;2023-02-18T15:34:02;8.40;;;5.53;;
19171;SDS011;9718;52.200;21.052;2023-02-18T15:36:51;5.90;;;5.40;;
19171;SDS011;9718;52.200;21.052;2023-02-18T15:39:18;8.03;;;7.20;;
19171;SDS011;9718;52.200;21.052;2023-02-18T15:41:55;6.17;;;5.57;;
19171;SDS011;9718;52.200;21.052;2023-02-18T15:44:29;5.80;;;5.20;;
19171;SDS011;9718;52.200;21.052;2023-02-18T15:47:03;9.00;;;5.30;;
19171;SDS011;9718;52.200;21.052;2023-02-18T15:49:35;5.07;;;3.13;;
19171;SDS011;9718;52.200;21.052;2023-02-18T15:52:05;7.90;;;4.50;;
19171;SDS011;9718;52.200;21.052;2023-02-18T15:54:35;5.73;;;3.57;;
19171;SDS011;9718;52.200;21.052;2023-02-18T15:57:08;3.87;;;2.63;;
19171;SDS011;9718;52.200;21.052;2023-02-18T15:59:44;3.80;;;3.60;;
19171;SDS011;9718;52.200;21.052;2023-02-18T16:02:21;6.00;;;4.67;;
19171;SDS011;9718;52.200;21.052;2023-02-18T16:04:53;13.83;;;5.00;;
19171;SDS011;9718;52.200;21.052;2023-02-18T16:07:25;8.47;;;5.00;;
19171;SDS011;9718;52.200;21.052;2023-02-18T16:12:48;8.17;;;5.47;;
19171;SDS011;9718;52.200;21.052;2023-02-18T16:15:23;8.27;;;5.17;;
19171;SDS011;9718;52.200;21.052;2023-02-18T16:17:55;9.37;;;4.90;;
19171;SDS011;9718;52.200;21.052;2023-02-18T16:20:29;13.13;;;4.97;;
19171;SDS011;9718;52.200;21.052;2023-02-18T16:23:03;13.70;;;4.90;;
19171;SDS011;9718;52.200;21.052;2023-02-18T16:25:47;12.23;;;5.53;;
19171;SDS011;9718;52.200;21.052;2023-02-18T16:28:25;9.27;;;6.33;;
19171;SDS011;9718;52.200;21.052;2023-02-18T16:30:58;6.63;;;5.90;;
19171;SDS011;9718;52.200;21.052;2023-02-18T16:33:26;7.30;;;6.20;;
19171;SDS011;9718;52.200;21.052;2023-02-18T16:35:53;11.07;;;6.23;;
19171;SDS011;9718;52.200;21.052;2023-02-18T16:38:23;13.30;;;5.70;;
19171;SDS011;9718;52.200;21.052;2023-02-18T16:40:52;11.93;;;5.37;;
19171;SDS011;9718;52.200;21.052;2023-02-18T16:43:22;8.33;;;5.57;;
19171;SDS011;9718;52.200;21.052;2023-02-18T16:45:54;10.07;;;6.40;;
19171;SDS011;9718;52.200;21.052;2023-02-18T16:48:31;11.57;;;6.10;;
19171;SDS011;9718;52.200;21.052;2023-02-18T16:51:06;9.33;;;6.47;;
19171;SDS011;9718;52.200;21.052;2023-02-18T16:53:52;7.73;;;5.67;;
19171;SDS011;9718;52.200;21.052;2023-02-18T16:56:21;10.67;;;6.30;;
19171;SDS011;9718;52.200;21.052;2023-02-18T16:58:52;10.47;;;6.07;;
19171;SDS011;9718;52.200;21.052;2023-02-18T17:01:22;9.07;;;6.17;;
19171;SDS011;9718;52.200;21.052;2023-02-18T17:03:52;8.77;;;6.73;;
19171;SDS011;9718;52.200;21.052;2023-02-18T17:06:25;9.93;;;6.00;;
19171;SDS011;9718;52.200;21.052;2023-02-18T17:08:53;10.37;;;6.53;;
19171;SDS011;9718;52.200;21.052;2023-02-18T17:11:25;10.93;;;5.97;;
19171;SDS011;9718;52.200;21.052;2023-02-18T17:13:56;8.20;;;5.90;;
19171;SDS011;9718;52.200;21.052;2023-02-18T17:16:26;8.10;;;5.20;;
19171;SDS011;9718;52.200;21.052;2023-02-18T17:18:56;8.10;;;6.03;;
19171;SDS011;9718;52.200;21.052;2023-02-18T17:21:24;11.10;;;5.50;;
19171;SDS011;9718;52.200;21.052;2023-02-18T17:23:56;10.70;;;5.80;;
19171;SDS011;9718;52.200;21.052;2023-02-18T17:26:26;8.17;;;5.27;;
19171;SDS011;9718;52.200;21.052;2023-02-18T17:28:57;8.70;;;5.33;;
19171;SDS011;9718;52.200;21.052;2023-02-18T17:31:27;10.57;;;5.90;;
19171;SDS011;9718;52.200;21.052;2023-02-18T17:33:59;6.90;;;5.67;;
19171;SDS011;9718;52.200;21.052;2023-02-18T17:36:32;8.83;;;5.13;;
19171;SDS011;9718;52.200;21.052;2023-02-18T17:39:00;7.90;;;4.40;;
19171;SDS011;9718;52.200;21.052;2023-02-18T17:41:28;8.00;;;4.73;;
19171;SDS011;9718;52.200;21.052;2023-02-18T17:43:55;7.60;;;4.37;;
19171;SDS011;9718;52.200;21.052;2023-02-18T17:46:23;10.80;;;3.93;;
19171;SDS011;9718;52.200;21.052;2023-02-18T17:48:50;4.13;;;3.10;;
19171;SDS011;9718;52.200;21.052;2023-02-18T17:51:23;9.23;;;4.30;;
19171;SDS011;9718;52.200;21.052;2023-02-18T17:53:53;8.93;;;4.57;;
19171;SDS011;9718;52.200;21.052;2023-02-18T17:56:20;9.47;;;4.43;;
19171;SDS011;9718;52.200;21.052;2023-02-18T17:58:51;10.07;;;4.50;;
19171;SDS011;9718;52.200;21.052;2023-02-18T18:01:21;9.27;;;4.63;;
19171;SDS011;9718;52.200;21.052;2023-02-18T18:03:49;5.53;;;4.00;;
19171;SDS011;9718;52.200;21.052;2023-02-18T18:06:18;10.90;;;5.10;;
19171;SDS011;9718;52.200;21.052;2023-02-18T18:08:47;11.97;;;4.97;;
19171;SDS011;9718;52.200;21.052;2023-02-18T18:11:16;9.57;;;4.83;;